首页
METAR-TAF:

METAR-TAF

机场 :

罗马-钱皮诺机场

罗马Ciampino, 意大利

纬度: 41-47N, 经度: 012-35E, 海拔: 129米

当前天气观测

该预报发布于17分钟前的09:20 UTC
风速5节,风向,在西转西北之间变化
温度 22°C
湿度 43%
气压 1015 hPa
能见度10公里或以上
少量云层高于3500英尺

METAR: LIRA 010920Z 01005KT 300V090 9999 FEW035 22/09 Q1015

时间: 11:37 (09:37 UTC)

预报

该预报发布于4小时和37分钟前的05:00 UTC
预报有效从01日的 06点(UTC)到 02日的 06点(UTC)
风速5节,风向多变
能见度10公里或以上
少量云层高于3500英尺
成为
从 01日的 10点(UTC)到 01日的 12点(UTC)
风速10节,风向南转西南
成为
从 01日的 16点(UTC)到 01日的 18点(UTC)
风速5节,风向多变

TAF: LIRA 010500Z 0106/0206 VRB05KT 9999 FEW035 BECMG 0110/0112 21010KT BECMG 0116/0118 VRB05KT

超过4000个机场的气象观测和天气预报(METAR&TAF报告)。

可查询的气象台以黄色和红色小点在地图上表示。

将鼠标移到小点上方,可查看气象台名称。

然后点击查看天气观测和预报。

如需切换地图:点击带黑十字的绿色按钮放大地图;点击带横线的绿色按钮缩小地图;或者点击绿色箭头查看邻近地区的地图。


METAR-TAF: